sensor_id;sensor_type;location;lat;lon;timestamp;P1;durP1;ratioP1;P2;durP2;ratioP2
21733;SDS011;11029;47.820;10.534;2023-02-11T00:00:54;21.33;;;10.30;;
21733;SDS011;11029;47.820;10.534;2023-02-11T00:03:21;19.58;;;9.05;;
21733;SDS011;11029;47.820;10.534;2023-02-11T00:05:57;18.73;;;9.65;;
21733;SDS011;11029;47.820;10.534;2023-02-11T00:08:29;17.17;;;9.13;;
21733;SDS011;11029;47.820;10.534;2023-02-11T00:10:56;17.15;;;8.88;;
21733;SDS011;11029;47.820;10.534;2023-02-11T00:13:23;21.40;;;9.68;;
21733;SDS011;11029;47.820;10.534;2023-02-11T00:15:50;19.85;;;9.73;;
21733;SDS011;11029;47.820;10.534;2023-02-11T00:18:17;22.80;;;10.80;;
21733;SDS011;11029;47.820;10.534;2023-02-11T00:20:44;19.83;;;9.90;;
21733;SDS011;11029;47.820;10.534;2023-02-11T00:23:11;23.10;;;11.77;;
21733;SDS011;11029;47.820;10.534;2023-02-11T00:25:39;22.73;;;10.80;;
21733;SDS011;11029;47.820;10.534;2023-02-11T00:28:06;25.40;;;10.57;;
21733;SDS011;11029;47.820;10.534;2023-02-11T00:30:34;17.60;;;9.55;;
21733;SDS011;11029;47.820;10.534;2023-02-11T00:33:02;19.35;;;8.98;;
21733;SDS011;11029;47.820;10.534;2023-02-11T00:35:30;22.60;;;10.48;;
21733;SDS011;11029;47.820;10.534;2023-02-11T00:37:58;19.92;;;9.20;;
21733;SDS011;11029;47.820;10.534;2023-02-11T00:40:25;21.95;;;9.75;;
21733;SDS011;11029;47.820;10.534;2023-02-11T00:42:52;23.23;;;10.20;;
21733;SDS011;11029;47.820;10.534;2023-02-11T00:45:18;20.27;;;9.93;;
21733;SDS011;11029;47.820;10.534;2023-02-11T00:47:46;22.30;;;10.32;;
21733;SDS011;11029;47.820;10.534;2023-02-11T00:50:13;18.80;;;9.63;;
21733;SDS011;11029;47.820;10.534;2023-02-11T00:52:40;19.17;;;10.13;;
21733;SDS011;11029;47.820;10.534;2023-02-11T00:55:07;16.77;;;9.10;;
21733;SDS011;11029;47.820;10.534;2023-02-11T00:57:34;18.63;;;9.82;;
21733;SDS011;11029;47.820;10.534;2023-02-11T01:00:01;20.58;;;9.35;;
21733;SDS011;11029;47.820;10.534;2023-02-11T01:02:30;17.83;;;8.80;;
21733;SDS011;11029;47.820;10.534;2023-02-11T01:04:56;15.38;;;8.82;;
21733;SDS011;11029;47.820;10.534;2023-02-11T01:07:25;19.90;;;9.45;;
21733;SDS011;11029;47.820;10.534;2023-02-11T01:09:53;17.95;;;9.02;;
21733;SDS011;11029;47.820;10.534;2023-02-11T01:12:20;19.45;;;9.02;;
21733;SDS011;11029;47.820;10.534;2023-02-11T01:14:46;20.05;;;9.45;;
21733;SDS011;11029;47.820;10.534;2023-02-11T01:17:13;16.67;;;7.95;;
21733;SDS011;11029;47.820;10.534;2023-02-11T01:19:40;17.08;;;8.05;;
21733;SDS011;11029;47.820;10.534;2023-02-11T01:22:07;19.45;;;8.90;;
21733;SDS011;11029;47.820;10.534;2023-02-11T01:24:34;17.65;;;8.35;;
21733;SDS011;11029;47.820;10.534;2023-02-11T01:27:01;20.80;;;9.68;;
21733;SDS011;11029;47.820;10.534;2023-02-11T01:29:27;18.35;;;9.32;;
21733;SDS011;11029;47.820;10.534;2023-02-11T01:31:54;19.15;;;9.20;;
21733;SDS011;11029;47.820;10.534;2023-02-11T01:34:24;19.02;;;9.35;;
21733;SDS011;11029;47.820;10.534;2023-02-11T01:36:55;17.13;;;8.50;;
21733;SDS011;11029;47.820;10.534;2023-02-11T01:39:27;16.83;;;8.93;;
21733;SDS011;11029;47.820;10.534;2023-02-11T01:41:54;15.52;;;8.25;;
21733;SDS011;11029;47.820;10.534;2023-02-11T01:44:23;18.15;;;8.85;;
21733;SDS011;11029;47.820;10.534;2023-02-11T01:46:55;16.27;;;8.20;;
21733;SDS011;11029;47.820;10.534;2023-02-11T01:49:24;15.95;;;7.93;;
21733;SDS011;11029;47.820;10.534;2023-02-11T01:52:04;16.43;;;8.03;;
21733;SDS011;11029;47.820;10.534;2023-02-11T01:54:59;16.00;;;8.18;;
21733;SDS011;11029;47.820;10.534;2023-02-11T01:57:51;16.80;;;8.23;;
21733;SDS011;11029;47.820;10.534;2023-02-11T02:00:26;17.58;;;8.38;;
21733;SDS011;11029;47.820;10.534;2023-02-11T02:03:02;14.32;;;6.97;;
21733;SDS011;11029;47.820;10.534;2023-02-11T02:05:34;17.35;;;7.72;;
21733;SDS011;11029;47.820;10.534;2023-02-11T02:08:22;17.95;;;7.28;;
21733;SDS011;11029;47.820;10.534;2023-02-11T02:11:09;12.40;;;6.75;;
21733;SDS011;11029;47.820;10.534;2023-02-11T02:13:36;13.18;;;7.18;;
21733;SDS011;11029;47.820;10.534;2023-02-11T02:16:07;14.77;;;7.38;;
21733;SDS011;11029;47.820;10.534;2023-02-11T02:24:20;15.45;;;7.20;;
21733;SDS011;11029;47.820;10.534;2023-02-11T02:41:26;12.25;;;6.63;;
21733;SDS011;11029;47.820;10.534;2023-02-11T02:43:58;13.85;;;7.10;;
21733;SDS011;11029;47.820;10.534;2023-02-11T02:46:29;16.70;;;7.88;;
21733;SDS011;11029;47.820;10.534;2023-02-11T03:02:35;12.82;;;6.55;;
21733;SDS011;11029;47.820;10.534;2023-02-11T03:05:24;14.45;;;6.55;;
21733;SDS011;11029;47.820;10.534;2023-02-11T03:10:35;12.15;;;6.38;;
21733;SDS011;11029;47.820;10.534;2023-02-11T03:13:13;14.15;;;6.50;;
21733;SDS011;11029;47.820;10.534;2023-02-11T03:15:45;12.90;;;6.27;;
21733;SDS011;11029;47.820;10.534;2023-02-11T03:18:16;10.73;;;6.18;;
21733;SDS011;11029;47.820;10.534;2023-02-11T03:20:47;13.50;;;6.47;;
21733;SDS011;11029;47.820;10.534;2023-02-11T03:25:54;12.60;;;6.55;;
21733;SDS011;11029;47.820;10.534;2023-02-11T03:28:28;13.48;;;6.72;;
21733;SDS011;11029;47.820;10.534;2023-02-11T03:34:10;13.20;;;6.40;;
21733;SDS011;11029;47.820;10.534;2023-02-11T03:39:21;12.82;;;6.78;;
21733;SDS011;11029;47.820;10.534;2023-02-11T03:41:52;12.35;;;6.25;;
21733;SDS011;11029;47.820;10.534;2023-02-11T03:44:24;12.30;;;6.00;;
21733;SDS011;11029;47.820;10.534;2023-02-11T03:46:55;12.52;;;6.45;;
21733;SDS011;11029;47.820;10.534;2023-02-11T03:49:22;11.50;;;6.03;;
21733;SDS011;11029;47.820;10.534;2023-02-11T03:51:52;11.85;;;5.50;;
21733;SDS011;11029;47.820;10.534;2023-02-11T03:54:25;14.25;;;6.40;;
21733;SDS011;11029;47.820;10.534;2023-02-11T03:56:56;11.57;;;6.18;;
21733;SDS011;11029;47.820;10.534;2023-02-11T03:59:25;10.05;;;4.97;;
21733;SDS011;11029;47.820;10.534;2023-02-11T04:01:52;13.02;;;6.28;;
21733;SDS011;11029;47.820;10.534;2023-02-11T04:04:20;9.27;;;4.95;;
21733;SDS011;11029;47.820;10.534;2023-02-11T04:06:47;10.27;;;5.32;;
21733;SDS011;11029;47.820;10.534;2023-02-11T04:09:13;11.15;;;5.72;;
21733;SDS011;11029;47.820;10.534;2023-02-11T04:11:40;10.52;;;5.53;;
21733;SDS011;11029;47.820;10.534;2023-02-11T04:14:07;11.88;;;5.40;;
21733;SDS011;11029;47.820;10.534;2023-02-11T04:16:33;15.77;;;7.07;;
21733;SDS011;11029;47.820;10.534;2023-02-11T04:19:00;14.40;;;5.63;;
21733;SDS011;11029;47.820;10.534;2023-02-11T04:21:27;9.80;;;5.28;;
21733;SDS011;11029;47.820;10.534;2023-02-11T04:23:54;12.73;;;5.88;;
21733;SDS011;11029;47.820;10.534;2023-02-11T04:26:21;10.80;;;4.93;;
21733;SDS011;11029;47.820;10.534;2023-02-11T04:28:47;10.55;;;5.45;;
21733;SDS011;11029;47.820;10.534;2023-02-11T04:31:14;10.65;;;5.10;;
21733;SDS011;11029;47.820;10.534;2023-02-11T04:33:41;9.30;;;5.38;;
21733;SDS011;11029;47.820;10.534;2023-02-11T04:36:07;10.10;;;4.95;;
21733;SDS011;11029;47.820;10.534;2023-02-11T04:38:34;8.57;;;5.10;;
21733;SDS011;11029;47.820;10.534;2023-02-11T04:41:01;10.38;;;5.22;;
21733;SDS011;11029;47.820;10.534;2023-02-11T04:43:28;10.82;;;4.75;;
21733;SDS011;11029;47.820;10.534;2023-02-11T04:45:57;9.25;;;5.13;;
21733;SDS011;11029;47.820;10.534;2023-02-11T04:48:25;9.32;;;5.30;;
21733;SDS011;11029;47.820;10.534;2023-02-11T04:50:51;9.00;;;4.90;;
21733;SDS011;11029;47.820;10.534;2023-02-11T04:53:18;9.38;;;5.45;;
21733;SDS011;11029;47.820;10.534;2023-02-11T04:55:47;11.05;;;5.75;;
21733;SDS011;11029;47.820;10.534;2023-02-11T04:58:16;10.38;;;5.00;;
21733;SDS011;11029;47.820;10.534;2023-02-11T05:00:43;9.07;;;4.72;;
21733;SDS011;11029;47.820;10.534;2023-02-11T05:03:10;10.90;;;4.70;;
21733;SDS011;11029;47.820;10.534;2023-02-11T05:05:38;10.77;;;4.80;;
21733;SDS011;11029;47.820;10.534;2023-02-11T05:08:08;11.00;;;4.75;;
21733;SDS011;11029;47.820;10.534;2023-02-11T05:10:36;8.27;;;4.68;;
21733;SDS011;11029;47.820;10.534;2023-02-11T05:13:03;7.82;;;4.28;;
21733;SDS011;11029;47.820;10.534;2023-02-11T05:15:30;10.48;;;4.88;;
21733;SDS011;11029;47.820;10.534;2023-02-11T05:17:57;9.07;;;4.82;;
21733;SDS011;11029;47.820;10.534;2023-02-11T05:20:23;7.57;;;4.47;;
21733;SDS011;11029;47.820;10.534;2023-02-11T05:22:50;9.27;;;4.80;;
21733;SDS011;11029;47.820;10.534;2023-02-11T05:25:17;9.98;;;5.10;;
21733;SDS011;11029;47.820;10.534;2023-02-11T05:27:45;7.60;;;4.50;;
21733;SDS011;11029;47.820;10.534;2023-02-11T05:30:12;7.60;;;4.40;;
21733;SDS011;11029;47.820;10.534;2023-02-11T05:32:39;7.90;;;4.75;;
21733;SDS011;11029;47.820;10.534;2023-02-11T05:35:06;7.68;;;4.53;;
21733;SDS011;11029;47.820;10.534;2023-02-11T05:37:33;8.90;;;5.20;;
21733;SDS011;11029;47.820;10.534;2023-02-11T05:40:00;9.02;;;4.07;;
21733;SDS011;11029;47.820;10.534;2023-02-11T05:42:27;11.20;;;5.18;;
21733;SDS011;11029;47.820;10.534;2023-02-11T05:44:54;7.72;;;4.18;;
21733;SDS011;11029;47.820;10.534;2023-02-11T05:47:20;7.38;;;4.35;;
21733;SDS011;11029;47.820;10.534;2023-02-11T05:49:47;7.90;;;4.38;;
21733;SDS011;11029;47.820;10.534;2023-02-11T05:52:14;7.57;;;4.78;;
21733;SDS011;11029;47.820;10.534;2023-02-11T05:54:41;10.02;;;4.45;;
21733;SDS011;11029;47.820;10.534;2023-02-11T05:57:07;8.70;;;4.50;;
21733;SDS011;11029;47.820;10.534;2023-02-11T05:59:34;7.22;;;3.90;;
21733;SDS011;11029;47.820;10.534;2023-02-11T06:02:01;8.20;;;4.38;;
21733;SDS011;11029;47.820;10.534;2023-02-11T06:04:28;5.97;;;3.85;;
21733;SDS011;11029;47.820;10.534;2023-02-11T06:06:55;10.10;;;4.43;;
21733;SDS011;11029;47.820;10.534;2023-02-11T06:09:22;7.43;;;4.13;;
21733;SDS011;11029;47.820;10.534;2023-02-11T06:11:48;7.82;;;4.10;;
21733;SDS011;11029;47.820;10.534;2023-02-11T06:14:15;5.88;;;3.80;;
21733;SDS011;11029;47.820;10.534;2023-02-11T06:16:42;7.97;;;4.15;;
21733;SDS011;11029;47.820;10.534;2023-02-11T06:19:09;13.50;;;5.43;;
21733;SDS011;11029;47.820;10.534;2023-02-11T06:21:36;17.60;;;8.65;;
21733;SDS011;11029;47.820;10.534;2023-02-11T06:24:09;17.83;;;8.63;;
21733;SDS011;11029;47.820;10.534;2023-02-11T06:26:36;18.02;;;8.75;;
21733;SDS011;11029;47.820;10.534;2023-02-11T06:29:03;16.20;;;7.72;;
21733;SDS011;11029;47.820;10.534;2023-02-11T06:31:30;17.05;;;7.93;;
21733;SDS011;11029;47.820;10.534;2023-02-11T06:33:57;12.25;;;6.40;;
21733;SDS011;11029;47.820;10.534;2023-02-11T06:36:24;9.18;;;5.05;;
21733;SDS011;11029;47.820;10.534;2023-02-11T06:38:51;9.00;;;5.15;;
21733;SDS011;11029;47.820;10.534;2023-02-11T06:41:18;9.85;;;5.30;;
21733;SDS011;11029;47.820;10.534;2023-02-11T06:43:47;11.93;;;6.38;;
21733;SDS011;11029;47.820;10.534;2023-02-11T06:46:14;20.40;;;9.80;;
21733;SDS011;11029;47.820;10.534;2023-02-11T06:48:41;16.05;;;7.57;;
21733;SDS011;11029;47.820;10.534;2023-02-11T06:51:10;17.23;;;7.97;;
21733;SDS011;11029;47.820;10.534;2023-02-11T06:53:39;13.55;;;6.07;;
21733;SDS011;11029;47.820;10.534;2023-02-11T06:56:09;13.70;;;6.38;;
21733;SDS011;11029;47.820;10.534;2023-02-11T06:58:43;13.13;;;6.60;;
21733;SDS011;11029;47.820;10.534;2023-02-11T07:01:11;15.98;;;7.57;;
21733;SDS011;11029;47.820;10.534;2023-02-11T07:03:40;21.15;;;10.98;;
21733;SDS011;11029;47.820;10.534;2023-02-11T07:06:10;19.67;;;11.90;;
21733;SDS011;11029;47.820;10.534;2023-02-11T07:08:41;23.08;;;12.65;;
21733;SDS011;11029;47.820;10.534;2023-02-11T07:11:18;20.67;;;10.63;;
21733;SDS011;11029;47.820;10.534;2023-02-11T07:13:49;13.38;;;5.93;;
21733;SDS011;11029;47.820;10.534;2023-02-11T07:16:17;10.93;;;6.40;;
21733;SDS011;11029;47.820;10.534;2023-02-11T07:18:45;10.27;;;5.90;;
21733;SDS011;11029;47.820;10.534;2023-02-11T07:21:13;13.50;;;5.63;;
21733;SDS011;11029;47.820;10.534;2023-02-11T07:23:43;10.32;;;5.65;;
21733;SDS011;11029;47.820;10.534;2023-02-11T07:26:12;8.70;;;5.15;;
21733;SDS011;11029;47.820;10.534;2023-02-11T07:28:40;11.43;;;6.50;;
21733;SDS011;11029;47.820;10.534;2023-02-11T07:31:08;15.63;;;7.80;;
21733;SDS011;11029;47.820;10.534;2023-02-11T07:33:37;14.52;;;8.27;;
21733;SDS011;11029;47.820;10.534;2023-02-11T07:36:04;15.77;;;9.52;;
21733;SDS011;11029;47.820;10.534;2023-02-11T07:38:32;12.38;;;7.70;;
21733;SDS011;11029;47.820;10.534;2023-02-11T07:41:04;15.23;;;8.07;;
21733;SDS011;11029;47.820;10.534;2023-02-11T07:43:33;17.40;;;9.35;;
21733;SDS011;11029;47.820;10.534;2023-02-11T07:46:07;23.83;;;11.02;;
21733;SDS011;11029;47.820;10.534;2023-02-11T07:48:35;16.45;;;9.13;;
21733;SDS011;11029;47.820;10.534;2023-02-11T07:53:43;10.40;;;5.15;;
21733;SDS011;11029;47.820;10.534;2023-02-11T07:56:11;11.00;;;5.75;;
21733;SDS011;11029;47.820;10.534;2023-02-11T07:58:40;8.98;;;5.78;;
21733;SDS011;11029;47.820;10.534;2023-02-11T08:01:12;13.85;;;8.35;;
21733;SDS011;11029;47.820;10.534;2023-02-11T08:03:42;14.68;;;8.35;;
21733;SDS011;11029;47.820;10.534;2023-02-11T08:06:12;16.63;;;9.18;;
21733;SDS011;11029;47.820;10.534;2023-02-11T08:08:41;15.63;;;8.73;;
21733;SDS011;11029;47.820;10.534;2023-02-11T08:11:18;17.00;;;9.55;;
21733;SDS011;11029;47.820;10.534;2023-02-11T08:13:53;16.88;;;9.52;;
21733;SDS011;11029;47.820;10.534;2023-02-11T08:18:48;27.35;;;13.48;;
21733;SDS011;11029;47.820;10.534;2023-02-11T08:21:15;24.77;;;12.15;;
21733;SDS011;11029;47.820;10.534;2023-02-11T08:23:43;16.05;;;8.30;;
21733;SDS011;11029;47.820;10.534;2023-02-11T08:26:11;11.23;;;6.07;;
21733;SDS011;11029;47.820;10.534;2023-02-11T08:28:41;13.88;;;6.78;;
21733;SDS011;11029;47.820;10.534;2023-02-11T08:31:12;19.10;;;10.45;;
21733;SDS011;11029;47.820;10.534;2023-02-11T08:33:41;18.23;;;10.20;;
21733;SDS011;11029;47.820;10.534;2023-02-11T08:36:09;12.00;;;6.57;;
21733;SDS011;11029;47.820;10.534;2023-02-11T08:38:38;11.60;;;5.45;;
21733;SDS011;11029;47.820;10.534;2023-02-11T08:41:05;10.63;;;5.32;;
21733;SDS011;11029;47.820;10.534;2023-02-11T08:43:32;12.88;;;7.15;;
21733;SDS011;11029;47.820;10.534;2023-02-11T08:45:59;26.90;;;13.10;;
21733;SDS011;11029;47.820;10.534;2023-02-11T08:48:27;23.30;;;11.90;;
21733;SDS011;11029;47.820;10.534;2023-02-11T08:50:55;19.77;;;9.70;;
21733;SDS011;11029;47.820;10.534;2023-02-11T08:53:21;17.58;;;8.10;;
21733;SDS011;11029;47.820;10.534;2023-02-11T08:55:49;13.80;;;8.80;;
21733;SDS011;11029;47.820;10.534;2023-02-11T08:58:17;10.38;;;6.45;;
21733;SDS011;11029;47.820;10.534;2023-02-11T09:00:44;11.30;;;6.88;;
21733;SDS011;11029;47.820;10.534;2023-02-11T09:03:12;9.75;;;5.82;;
21733;SDS011;11029;47.820;10.534;2023-02-11T09:05:40;7.93;;;5.15;;
21733;SDS011;11029;47.820;10.534;2023-02-11T09:08:08;7.03;;;4.70;;
21733;SDS011;11029;47.820;10.534;2023-02-11T09:10:35;8.30;;;5.40;;
21733;SDS011;11029;47.820;10.534;2023-02-11T09:13:02;10.30;;;4.93;;
21733;SDS011;11029;47.820;10.534;2023-02-11T09:15:29;8.18;;;4.63;;
21733;SDS011;11029;47.820;10.534;2023-02-11T09:17:55;6.35;;;4.00;;
21733;SDS011;11029;47.820;10.534;2023-02-11T09:20:23;8.93;;;4.65;;
21733;SDS011;11029;47.820;10.534;2023-02-11T09:22:52;7.63;;;4.38;;
21733;SDS011;11029;47.820;10.534;2023-02-11T09:25:19;7.35;;;4.35;;
21733;SDS011;11029;47.820;10.534;2023-02-11T09:27:46;7.28;;;4.40;;
21733;SDS011;11029;47.820;10.534;2023-02-11T09:30:13;15.82;;;4.25;;
21733;SDS011;11029;47.820;10.534;2023-02-11T09:32:40;9.60;;;4.30;;
21733;SDS011;11029;47.820;10.534;2023-02-11T09:35:07;8.32;;;4.63;;
21733;SDS011;11029;47.820;10.534;2023-02-11T09:37:34;8.35;;;3.80;;
21733;SDS011;11029;47.820;10.534;2023-02-11T09:40:02;5.93;;;3.75;;
21733;SDS011;11029;47.820;10.534;2023-02-11T09:42:36;7.90;;;4.20;;
21733;SDS011;11029;47.820;10.534;2023-02-11T09:45:26;8.43;;;5.35;;
21733;SDS011;11029;47.820;10.534;2023-02-11T09:47:55;6.82;;;4.20;;
21733;SDS011;11029;47.820;10.534;2023-02-11T09:50:32;5.13;;;3.30;;
21733;SDS011;11029;47.820;10.534;2023-02-11T09:53:17;6.95;;;3.28;;
21733;SDS011;11029;47.820;10.534;2023-02-11T09:55:53;6.32;;;3.15;;
21733;SDS011;11029;47.820;10.534;2023-02-11T09:58:26;5.72;;;3.60;;
21733;SDS011;11029;47.820;10.534;2023-02-11T10:00:59;5.88;;;3.63;;
21733;SDS011;11029;47.820;10.534;2023-02-11T10:09:38;3.92;;;3.00;;
21733;SDS011;11029;47.820;10.534;2023-02-11T10:12:26;6.38;;;3.35;;
21733;SDS011;11029;47.820;10.534;2023-02-11T10:23:32;5.47;;;3.00;;
21733;SDS011;11029;47.820;10.534;2023-02-11T10:26:02;3.25;;;2.47;;
21733;SDS011;11029;47.820;10.534;2023-02-11T10:28:35;4.55;;;2.65;;
21733;SDS011;11029;47.820;10.534;2023-02-11T10:31:06;7.25;;;3.70;;
21733;SDS011;11029;47.820;10.534;2023-02-11T10:36:06;4.82;;;3.30;;
21733;SDS011;11029;47.820;10.534;2023-02-11T10:38:35;12.50;;;3.85;;
21733;SDS011;11029;47.820;10.534;2023-02-11T10:41:03;6.22;;;3.28;;
21733;SDS011;11029;47.820;10.534;2023-02-11T10:43:30;4.55;;;2.10;;
21733;SDS011;11029;47.820;10.534;2023-02-11T10:45:58;6.25;;;3.20;;
21733;SDS011;11029;47.820;10.534;2023-02-11T10:48:41;7.82;;;5.00;;
21733;SDS011;11029;47.820;10.534;2023-02-11T10:53:43;4.30;;;2.90;;
21733;SDS011;11029;47.820;10.534;2023-02-11T10:56:24;6.00;;;4.13;;
21733;SDS011;11029;47.820;10.534;2023-02-11T10:58:54;3.15;;;2.42;;
21733;SDS011;11029;47.820;10.534;2023-02-11T11:04:26;3.28;;;2.63;;
21733;SDS011;11029;47.820;10.534;2023-02-11T11:07:12;3.88;;;2.75;;
21733;SDS011;11029;47.820;10.534;2023-02-11T11:09:48;4.30;;;2.22;;
21733;SDS011;11029;47.820;10.534;2023-02-11T11:12:24;5.32;;;1.70;;
21733;SDS011;11029;47.820;10.534;2023-02-11T11:17:48;2.53;;;2.10;;
21733;SDS011;11029;47.820;10.534;2023-02-11T11:20:21;2.67;;;2.03;;
21733;SDS011;11029;47.820;10.534;2023-02-11T11:22:49;2.17;;;1.80;;
21733;SDS011;11029;47.820;10.534;2023-02-11T11:25:21;5.68;;;3.38;;
21733;SDS011;11029;47.820;10.534;2023-02-11T11:27:56;4.45;;;2.88;;
21733;SDS011;11029;47.820;10.534;2023-02-11T11:30:38;2.25;;;2.00;;
21733;SDS011;11029;47.820;10.534;2023-02-11T11:33:22;15.32;;;6.82;;
21733;SDS011;11029;47.820;10.534;2023-02-11T11:36:42;15.43;;;6.85;;
21733;SDS011;11029;47.820;10.534;2023-02-11T11:38:57;6.88;;;4.35;;
21733;SDS011;11029;47.820;10.534;2023-02-11T11:41:29;8.52;;;4.72;;
21733;SDS011;11029;47.820;10.534;2023-02-11T11:43:59;5.25;;;3.97;;
21733;SDS011;11029;47.820;10.534;2023-02-11T11:46:35;4.65;;;3.20;;
21733;SDS011;11029;47.820;10.534;2023-02-11T11:51:50;1.88;;;1.38;;
21733;SDS011;11029;47.820;10.534;2023-02-11T11:54:24;2.15;;;1.90;;
21733;SDS011;11029;47.820;10.534;2023-02-11T11:56:59;1.23;;;1.15;;
21733;SDS011;11029;47.820;10.534;2023-02-11T11:59:35;3.70;;;1.60;;
21733;SDS011;11029;47.820;10.534;2023-02-11T12:04:52;1.35;;;0.90;;
21733;SDS011;11029;47.820;10.534;2023-02-11T12:12:53;1.10;;;1.00;;
21733;SDS011;11029;47.820;10.534;2023-02-11T12:15:52;3.00;;;1.48;;
21733;SDS011;11029;47.820;10.534;2023-02-11T12:24:28;1.00;;;0.90;;
21733;SDS011;11029;47.820;10.534;2023-02-11T12:33:21;2.25;;;1.67;;
21733;SDS011;11029;47.820;10.534;2023-02-11T12:39:12;2.45;;;1.60;;
21733;SDS011;11029;47.820;10.534;2023-02-11T12:45:10;1.95;;;1.35;;
21733;SDS011;11029;47.820;10.534;2023-02-11T12:48:00;2.00;;;1.70;;
21733;SDS011;11029;47.820;10.534;2023-02-11T12:50:35;2.42;;;1.90;;
21733;SDS011;11029;47.820;10.534;2023-02-11T12:53:45;4.95;;;2.17;;
21733;SDS011;11029;47.820;10.534;2023-02-11T12:56:35;1.92;;;1.70;;
21733;SDS011;11029;47.820;10.534;2023-02-11T13:01:58;2.40;;;1.88;;
21733;SDS011;11029;47.820;10.534;2023-02-11T13:04:36;2.88;;;1.92;;
21733;SDS011;11029;47.820;10.534;2023-02-11T13:07:15;4.70;;;1.60;;
21733;SDS011;11029;47.820;10.534;2023-02-11T13:09:50;2.30;;;1.67;;
21733;SDS011;11029;47.820;10.534;2023-02-11T13:12:24;3.63;;;1.80;;
21733;SDS011;11029;47.820;10.534;2023-02-11T13:15:13;3.22;;;2.13;;
21733;SDS011;11029;47.820;10.534;2023-02-11T13:17:47;2.40;;;1.88;;
21733;SDS011;11029;47.820;10.534;2023-02-11T13:20:23;4.03;;;2.00;;
21733;SDS011;11029;47.820;10.534;2023-02-11T13:23:12;2.78;;;1.77;;
21733;SDS011;11029;47.820;10.534;2023-02-11T13:26:11;7.15;;;2.15;;
21733;SDS011;11029;47.820;10.534;2023-02-11T13:29:15;1.95;;;1.50;;
21733;SDS011;11029;47.820;10.534;2023-02-11T13:32:10;2.17;;;1.90;;
21733;SDS011;11029;47.820;10.534;2023-02-11T13:37:18;2.97;;;1.65;;
21733;SDS011;11029;47.820;10.534;2023-02-11T13:39:58;2.83;;;1.65;;
21733;SDS011;11029;47.820;10.534;2023-02-11T13:42:28;3.03;;;2.35;;
21733;SDS011;11029;47.820;10.534;2023-02-11T13:44:55;2.47;;;1.70;;
21733;SDS011;11029;47.820;10.534;2023-02-11T13:47:24;2.55;;;1.60;;
21733;SDS011;11029;47.820;10.534;2023-02-11T13:49:55;2.20;;;2.00;;
21733;SDS011;11029;47.820;10.534;2023-02-11T13:52:31;2.70;;;1.70;;
21733;SDS011;11029;47.820;10.534;2023-02-11T13:55:06;2.35;;;1.60;;
21733;SDS011;11029;47.820;10.534;2023-02-11T13:57:45;2.17;;;1.98;;
21733;SDS011;11029;47.820;10.534;2023-02-11T14:11:51;2.35;;;2.15;;
21733;SDS011;11029;47.820;10.534;2023-02-11T14:14:24;3.30;;;3.00;;
21733;SDS011;11029;47.820;10.534;2023-02-11T14:19:43;3.85;;;1.90;;
21733;SDS011;11029;47.820;10.534;2023-02-11T14:22:15;1.95;;;1.25;;
21733;SDS011;11029;47.820;10.534;2023-02-11T14:24:44;1.63;;;1.30;;
21733;SDS011;11029;47.820;10.534;2023-02-11T14:27:23;2.78;;;1.40;;
21733;SDS011;11029;47.820;10.534;2023-02-11T14:40:31;2.45;;;1.40;;
21733;SDS011;11029;47.820;10.534;2023-02-11T14:43:11;1.90;;;1.48;;
21733;SDS011;11029;47.820;10.534;2023-02-11T14:45:43;1.90;;;1.70;;
21733;SDS011;11029;47.820;10.534;2023-02-11T14:48:17;3.72;;;3.42;;
21733;SDS011;11029;47.820;10.534;2023-02-11T14:50:52;3.10;;;1.80;;
21733;SDS011;11029;47.820;10.534;2023-02-11T14:53:25;1.52;;;1.42;;
21733;SDS011;11029;47.820;10.534;2023-02-11T14:55:55;3.20;;;2.20;;
21733;SDS011;11029;47.820;10.534;2023-02-11T14:58:22;13.25;;;8.30;;
21733;SDS011;11029;47.820;10.534;2023-02-11T15:01:02;7.57;;;4.45;;
21733;SDS011;11029;47.820;10.534;2023-02-11T15:03:48;3.85;;;2.00;;
21733;SDS011;11029;47.820;10.534;2023-02-11T15:06:19;3.13;;;2.10;;
21733;SDS011;11029;47.820;10.534;2023-02-11T15:11:49;7.50;;;3.47;;
21733;SDS011;11029;47.820;10.534;2023-02-11T15:14:22;1.90;;;1.38;;
21733;SDS011;11029;47.820;10.534;2023-02-11T15:16:57;2.65;;;1.70;;
21733;SDS011;11029;47.820;10.534;2023-02-11T15:19:33;4.00;;;2.00;;
21733;SDS011;11029;47.820;10.534;2023-02-11T15:22:05;2.63;;;1.58;;
21733;SDS011;11029;47.820;10.534;2023-02-11T15:24:43;1.73;;;1.38;;
21733;SDS011;11029;47.820;10.534;2023-02-11T15:27:12;2.38;;;1.83;;
21733;SDS011;11029;47.820;10.534;2023-02-11T15:29:41;1.90;;;1.42;;
21733;SDS011;11029;47.820;10.534;2023-02-11T15:32:17;3.22;;;2.00;;
21733;SDS011;11029;47.820;10.534;2023-02-11T15:34:44;2.42;;;1.30;;
21733;SDS011;11029;47.820;10.534;2023-02-11T15:37:12;1.50;;;1.40;;
21733;SDS011;11029;47.820;10.534;2023-02-11T15:39:42;3.17;;;2.13;;
21733;SDS011;11029;47.820;10.534;2023-02-11T15:44:45;3.88;;;2.35;;
21733;SDS011;11029;47.820;10.534;2023-02-11T15:47:28;4.82;;;2.45;;
21733;SDS011;11029;47.820;10.534;2023-02-11T15:49:54;4.35;;;2.00;;
21733;SDS011;11029;47.820;10.534;2023-02-11T15:52:22;3.20;;;1.90;;
21733;SDS011;11029;47.820;10.534;2023-02-11T15:54:51;3.40;;;1.83;;
21733;SDS011;11029;47.820;10.534;2023-02-11T15:57:20;2.60;;;1.75;;
21733;SDS011;11029;47.820;10.534;2023-02-11T15:59:49;2.00;;;1.42;;
21733;SDS011;11029;47.820;10.534;2023-02-11T16:04:53;4.78;;;2.60;;
21733;SDS011;11029;47.820;10.534;2023-02-11T16:07:42;3.97;;;2.20;;
21733;SDS011;11029;47.820;10.534;2023-02-11T16:10:22;4.10;;;2.60;;
21733;SDS011;11029;47.820;10.534;2023-02-11T16:18:03;4.75;;;2.60;;
21733;SDS011;11029;47.820;10.534;2023-02-11T16:21:03;4.20;;;3.10;;
21733;SDS011;11029;47.820;10.534;2023-02-11T16:23:35;6.75;;;3.80;;
21733;SDS011;11029;47.820;10.534;2023-02-11T16:29:11;9.23;;;3.70;;
21733;SDS011;11029;47.820;10.534;2023-02-11T16:31:44;5.97;;;3.92;;
21733;SDS011;11029;47.820;10.534;2023-02-11T16:34:14;14.98;;;6.25;;
21733;SDS011;11029;47.820;10.534;2023-02-11T16:36:46;10.95;;;5.55;;
21733;SDS011;11029;47.820;10.534;2023-02-11T16:39:15;8.20;;;5.55;;
21733;SDS011;11029;47.820;10.534;2023-02-11T16:41:42;9.52;;;5.60;;
21733;SDS011;11029;47.820;10.534;2023-02-11T16:44:09;12.15;;;5.28;;
21733;SDS011;11029;47.820;10.534;2023-02-11T16:46:36;11.32;;;5.05;;
21733;SDS011;11029;47.820;10.534;2023-02-11T16:49:25;15.25;;;8.65;;
21733;SDS011;11029;47.820;10.534;2023-02-11T16:51:58;16.13;;;5.60;;
21733;SDS011;11029;47.820;10.534;2023-02-11T16:54:28;14.40;;;6.47;;
21733;SDS011;11029;47.820;10.534;2023-02-11T16:56:56;20.88;;;9.68;;
21733;SDS011;11029;47.820;10.534;2023-02-11T16:59:23;15.00;;;7.13;;
21733;SDS011;11029;47.820;10.534;2023-02-11T17:01:51;16.23;;;9.10;;
21733;SDS011;11029;47.820;10.534;2023-02-11T17:04:21;23.95;;;13.30;;
21733;SDS011;11029;47.820;10.534;2023-02-11T17:06:50;22.70;;;11.47;;
21733;SDS011;11029;47.820;10.534;2023-02-11T17:09:21;18.42;;;10.25;;
21733;SDS011;11029;47.820;10.534;2023-02-11T17:11:49;17.77;;;10.10;;
21733;SDS011;11029;47.820;10.534;2023-02-11T17:14:16;28.90;;;14.45;;
21733;SDS011;11029;47.820;10.534;2023-02-11T17:16:44;43.95;;;22.33;;
21733;SDS011;11029;47.820;10.534;2023-02-11T17:19:12;28.73;;;15.27;;
21733;SDS011;11029;47.820;10.534;2023-02-11T17:21:44;28.10;;;14.85;;